Time;durP1;ratioP1;P1;durP2;ratioP2;P2;SDS_P1;SDS_P2;PMS_P1;PMS_P2;Temp;Humidity;BMP_temperature;BMP_pressure;BME280_temperature;BME280_humidity;BME280_pressure;Samples;Min_cycle;Max_cycle;Signal;HPM_P1;HPM_P2
2023/03/24 00:01:19;;;;;;;7.35;3.92;;;;;;;18.51;45.26;100000.31;5071394;28;20055;-70
2023/03/24 00:03:50;;;;;;;6.10;3.78;;;;;;;18.48;45.22;99992.50;5071289;28;20123;-69
2023/03/24 00:06:21;;;;;;;7.05;3.80;;;;;;;18.47;44.99;99990.81;5071469;28;20049;-70
2023/03/24 00:08:50;;;;;;;5.72;3.90;;;;;;;18.48;45.23;99995.22;5071947;28;20401;-69
2023/03/24 00:11:19;;;;;;;6.00;3.65;;;;;;;18.46;45.33;99989.97;5071209;28;20041;-70
2023/03/24 00:13:49;;;;;;;6.53;4.03;;;;;;;18.45;45.01;99985.56;5071212;28;20040;-70
2023/03/24 00:16:20;;;;;;;6.25;3.88;;;;;;;18.44;45.17;99986.56;5071231;28;20486;-70
2023/03/24 00:18:51;;;;;;;6.63;4.28;;;;;;;18.43;45.03;99982.16;5071123;28;20045;-69
2023/03/24 00:21:23;;;;;;;5.60;3.90;;;;;;;18.40;44.96;99976.19;5071400;28;20091;-69
2023/03/24 00:23:53;;;;;;;6.63;4.10;;;;;;;18.41;45.38;99980.59;5071865;28;20106;-70
2023/03/24 00:26:23;;;;;;;5.72;3.60;;;;;;;18.39;45.00;99979.91;5074917;28;20040;-70
2023/03/24 00:28:55;;;;;;;6.82;4.35;;;;;;;18.38;44.90;99976.34;5074735;28;20079;-70
2023/03/24 00:31:24;;;;;;;5.80;3.80;;;;;;;18.38;45.33;99970.94;5074702;28;20048;-70
2023/03/24 00:33:53;;;;;;;5.93;3.67;;;;;;;18.35;45.22;99973.09;5074708;28;20123;-70
2023/03/24 00:36:24;;;;;;;6.38;4.18;;;;;;;18.36;44.89;99966.69;5074816;28;20444;-70
2023/03/24 00:38:53;;;;;;;7.60;4.30;;;;;;;18.31;44.95;99959.88;5074649;28;20044;-68
2023/03/24 00:41:25;;;;;;;5.45;3.92;;;;;;;18.34;45.13;99960.59;5074401;28;20144;-70
2023/03/24 00:43:57;;;;;;;6.53;3.78;;;;;;;18.33;45.32;99953.47;5074499;28;20048;-70
2023/03/24 00:46:29;;;;;;;6.88;4.50;;;;;;;18.30;45.13;99952.78;5074641;28;20151;-70
2023/03/24 00:49:02;;;;;;;7.25;4.32;;;;;;;18.31;45.26;99953.63;5074503;28;20051;-70
2023/03/24 00:51:32;;;;;;;6.10;4.22;;;;;;;18.28;45.12;99957.50;5074473;28;20478;-70
2023/03/24 00:54:01;;;;;;;7.50;4.53;;;;;;;18.27;45.10;99944.16;5074224;28;20098;-70
2023/03/24 00:56:31;;;;;;;6.40;4.15;;;;;;;18.27;44.89;99942.28;5074376;28;20565;-70
2023/03/24 00:59:01;;;;;;;5.93;4.00;;;;;;;18.24;45.29;99942.59;5074298;28;20061;-70
2023/03/24 01:01:33;;;;;;;7.85;3.95;;;;;;;18.26;45.03;99943.28;5074200;28;20485;-70
2023/03/24 01:04:02;;;;;;;;;;;;;;;18.24;45.09;99942.59;5074512;28;20097;-69
2023/03/24 01:06:31;;;;;;;5.55;3.85;;;;;;;18.23;44.94;99938.16;5072895;28;20289;-69
2023/03/24 01:09:01;;;;;;;5.70;3.97;;;;;;;18.21;44.88;99931.22;5074120;28;20044;-69
2023/03/24 01:11:36;;;;;;;6.15;4.13;;;;;;;18.22;45.13;99932.94;5074034;28;20090;-69
2023/03/24 01:14:06;;;;;;;5.53;3.92;;;;;;;18.20;45.04;99933.09;5073897;28;20119;-70
2023/03/24 01:16:35;;;;;;;5.90;4.20;;;;;;;18.18;44.97;99929.69;5074005;28;20044;-70
2023/03/24 01:19:04;;;;;;;5.80;3.80;;;;;;;18.16;45.28;99928.16;5073803;28;20074;-69
2023/03/24 01:21:33;;;;;;;7.05;4.20;;;;;;;18.16;45.20;99914.66;5073901;28;20063;-69
2023/03/24 01:24:03;;;;;;;6.15;4.20;;;;;;;18.15;44.95;99908.41;5073833;28;20094;-70
2023/03/24 01:26:32;;;;;;;6.38;4.30;;;;;;;18.14;44.95;99905.81;5073708;28;20508;-69
2023/03/24 01:29:00;;;;;;;6.97;4.22;;;;;;;18.11;45.04;99906.97;5073788;28;20072;-70
2023/03/24 01:31:30;;;;;;;6.70;4.00;;;;;;;18.12;45.15;99908.69;5073569;28;20044;-69
2023/03/24 01:33:58;;;;;;;6.30;3.72;;;;;;;18.11;45.22;99909.69;5073663;28;20048;-69
2023/03/24 01:36:26;;;;;;;7.55;4.32;;;;;;;18.11;44.98;99912.38;5073508;28;20044;-69
2023/03/24 01:38:57;;;;;;;6.28;4.20;;;;;;;18.10;44.99;99904.44;5073676;28;20048;-69
2023/03/24 01:41:27;;;;;;;6.13;4.13;;;;;;;18.08;45.27;99901.88;5073282;28;20079;-70
2023/03/24 01:43:55;;;;;;;6.93;4.50;;;;;;;18.07;45.18;99900.19;5073484;28;20119;-70
2023/03/24 01:46:25;;;;;;;5.32;3.92;;;;;;;18.07;45.04;99893.94;5075245;28;20053;-70
2023/03/24 01:49:00;;;;;;;7.63;4.32;;;;;;;18.06;45.28;99895.81;5073519;28;20049;-69
2023/03/24 01:51:33;;;;;;;6.63;4.30;;;;;;;18.04;45.15;99895.06;5073594;28;20370;-68
2023/03/24 01:54:04;;;;;;;6.82;4.10;;;;;;;18.02;44.94;99897.06;5073288;28;20516;-70
2023/03/24 01:56:35;;;;;;;7.25;4.35;;;;;;;18.02;45.03;99892.53;5073102;28;20045;-69
2023/03/24 01:59:06;;;;;;;6.65;4.20;;;;;;;18.01;45.11;99892.69;5073026;28;20127;-71
2023/03/24 02:01:35;;;;;;;5.20;3.70;;;;;;;17.99;44.96;99895.53;5072923;28;20051;-70
2023/03/24 02:04:06;;;;;;;6.40;3.92;;;;;;;17.98;45.08;99893.84;5072996;28;20044;-70
2023/03/24 02:06:39;;;;;;;6.90;4.10;;;;;;;17.98;45.06;99895.69;5072899;28;20063;-69
2023/03/24 02:09:09;;;;;;;5.28;3.92;;;;;;;17.97;45.02;99892.13;5073164;28;20048;-69
2023/03/24 02:11:39;;;;;;;6.88;4.38;;;;;;;17.97;45.14;99896.69;5073066;28;20048;-69
2023/03/24 02:14:08;;;;;;;6.05;3.85;;;;;;;17.95;44.94;99895.97;5073524;28;20101;-70
2023/03/24 02:17:02;;;;;;;5.90;3.85;;;;;;;17.91;45.00;99886.47;5073165;28;20056;-69
2023/03/24 02:20:01;;;;;;;6.38;4.03;;;;;;;17.92;44.97;99891.72;5072758;28;20045;-69
2023/03/24 02:23:00;;;;;;;5.20;3.70;;;;;;;17.92;44.99;99896.25;5072700;28;20528;-69
2023/03/24 02:26:00;;;;;;;5.95;3.78;;;;;;;17.91;45.00;99894.56;5072593;28;20090;-69
2023/03/24 02:28:39;;;;;;;7.10;4.10;;;;;;;17.90;45.12;99892.88;5072556;28;20480;-69
2023/03/24 02:31:38;;;;;;;6.00;4.13;;;;;;;17.86;45.07;99892.31;5072357;28;20048;-69
2023/03/24 02:34:40;;;;;;;5.75;4.03;;;;;;;17.87;45.06;99894.03;5071191;28;20102;-69
2023/03/24 02:37:38;;;;;;;6.25;4.03;;;;;;;17.86;45.10;99895.03;5072782;28;20044;-69
2023/03/24 02:40:18;;;;;;;5.43;3.97;;;;;;;17.86;44.81;99896.88;5069618;28;20060;-70
2023/03/24 02:43:00;;;;;;;6.05;3.88;;;;;;;17.83;44.95;99895.31;5072201;28;20184;-69
2023/03/24 02:45:35;;;;;;;7.43;4.57;;;;;;;17.82;44.89;99884.66;5072282;28;20074;-70
2023/03/24 02:48:19;;;;;;;5.85;4.05;;;;;;;17.82;44.84;99890.06;5071646;28;20044;-70
2023/03/24 02:50:54;;;;;;;6.38;4.05;;;;;;;17.81;45.04;99882.97;5072007;28;20473;-70
2023/03/24 02:53:30;;;;;;;6.88;4.20;;;;;;;17.80;44.96;99878.56;5072033;28;20105;-70
2023/03/24 02:56:10;;;;;;;6.00;4.13;;;;;;;17.78;44.86;99872.47;5072082;28;20041;-68
2023/03/24 02:58:47;;;;;;;7.15;4.43;;;;;;;17.76;45.02;99864.53;5071909;28;20055;-69
2023/03/24 03:01:31;;;;;;;6.50;4.10;;;;;;;17.76;44.98;99863.66;5072010;28;20044;-69
2023/03/24 03:04:05;;;;;;;7.18;4.32;;;;;;;17.75;45.09;99865.50;5072011;28;20490;-69
2023/03/24 03:06:38;;;;;;;5.65;3.95;;;;;;;17.74;44.93;99861.97;5071976;28;20045;-69
2023/03/24 03:09:13;;;;;;;6.10;3.90;;;;;;;17.73;45.11;99864.81;5071873;28;20040;-70
2023/03/24 03:11:47;;;;;;;6.65;4.50;;;;;;;17.73;44.79;99862.97;5070628;28;20082;-69
2023/03/24 03:14:20;;;;;;;6.65;4.35;;;;;;;17.71;44.97;99856.03;5071765;28;20048;-69
2023/03/24 03:16:53;;;;;;;7.05;4.32;;;;;;;17.70;44.81;99855.19;5071767;28;20135;-69
2023/03/24 03:19:23;;;;;;;;;;;;;;;17.70;45.04;99857.88;5072116;28;20056;-69
2023/03/24 03:21:53;;;;;;;7.47;4.03;;;;;;;17.68;44.79;99857.16;5071763;28;19925;-68
2023/03/24 03:24:27;;;;;;;6.93;4.40;;;;;;;17.67;45.02;99860.84;5071691;28;20340;-68
2023/03/24 03:27:01;;;;;;;6.20;4.18;;;;;;;17.63;44.84;99854.03;5071612;28;20040;-68
2023/03/24 03:29:37;;;;;;;7.47;4.38;;;;;;;17.66;44.89;99859.16;5071764;28;20049;-68
2023/03/24 03:32:09;;;;;;;7.43;4.43;;;;;;;17.66;44.94;99856.44;5071717;28;20122;-69
2023/03/24 03:34:42;;;;;;;5.97;4.13;;;;;;;17.66;44.80;99863.66;5071648;28;20048;-68
2023/03/24 03:37:24;;;;;;;6.47;4.25;;;;;;;17.64;45.02;99855.72;5071652;28;20123;-68
2023/03/24 03:39:58;;;;;;;5.95;4.28;;;;;;;17.63;44.82;99862.13;5071628;28;20139;-68
2023/03/24 03:42:28;;;;;;;6.30;4.20;;;;;;;17.61;44.97;99856.03;5071702;28;20127;-70
2023/03/24 03:44:57;;;;;;;6.53;4.03;;;;;;;17.61;44.90;99855.19;5071514;28;20068;-69
2023/03/24 03:47:25;;;;;;;6.85;4.55;;;;;;;17.61;44.66;99850.63;5071345;28;20044;-69
2023/03/24 03:49:54;;;;;;;7.20;4.38;;;;;;;17.58;44.91;99850.94;5071502;28;20048;-69
2023/03/24 03:52:22;;;;;;;6.47;4.05;;;;;;;17.58;44.85;99845.53;5071428;28;20055;-68
2023/03/24 03:54:52;;;;;;;6.20;4.40;;;;;;;17.57;44.93;99843.00;5071395;28;20124;-69
2023/03/24 03:57:20;;;;;;;5.13;3.75;;;;;;;17.58;44.75;99850.09;5071420;28;20086;-69
2023/03/24 03:59:50;;;;;;;6.32;4.45;;;;;;;17.55;44.97;99843.13;5073513;28;20052;-69
2023/03/24 04:02:35;;;;;;;6.53;4.10;;;;;;;17.56;44.79;99842.13;5075580;28;20052;-68
2023/03/24 04:05:28;;;;;;;5.80;4.20;;;;;;;17.55;44.88;99836.88;5075346;28;20520;-69
2023/03/24 04:08:09;;;;;;;6.50;4.57;;;;;;;17.53;44.65;99842.41;5075147;28;20048;-69
2023/03/24 04:10:51;;;;;;;6.28;4.35;;;;;;;17.53;44.69;99836.19;5075377;28;20328;-69
2023/03/24 04:13:29;;;;;;;6.15;4.15;;;;;;;17.50;44.90;99831.09;5075096;28;20069;-69
2023/03/24 04:16:07;;;;;;;6.95;4.35;;;;;;;17.48;44.89;99833.09;5075054;28;20052;-69
2023/03/24 04:18:57;;;;;;;6.65;4.43;;;;;;;17.49;44.68;99841.03;5074995;28;20432;-69
2023/03/24 04:21:41;;;;;;;6.13;4.30;;;;;;;17.49;44.84;99845.56;5074865;28;20044;-68
2023/03/24 04:24:16;;;;;;;;;;;;;;;17.48;44.94;99850.13;5075295;28;20405;-68
2023/03/24 04:26:54;;;;;;;6.78;4.18;;;;;;;17.44;44.77;99838.75;5074734;28;19931;-68
2023/03/24 04:29:32;;;;;;;7.00;4.30;;;;;;;17.44;44.98;99846.00;5074527;28;20048;-69
2023/03/24 04:32:06;;;;;;;6.65;4.35;;;;;;;17.43;44.66;99837.06;5074727;28;20401;-69
2023/03/24 04:34:41;;;;;;;6.60;4.10;;;;;;;17.44;44.67;99837.91;5074588;28;20399;-68
2023/03/24 04:37:13;;;;;;;6.53;4.28;;;;;;;17.40;44.85;99833.81;5074781;28;20044;-69
2023/03/24 04:39:46;;;;;;;6.22;4.05;;;;;;;17.42;44.87;99839.91;5074409;28;20052;-69
2023/03/24 04:42:19;;;;;;;7.68;4.50;;;;;;;17.41;44.61;99849.84;5074579;28;20048;-69
2023/03/24 04:44:50;;;;;;;;;;;;;;;17.36;44.74;99837.78;5074861;28;20041;-69
2023/03/24 04:47:24;;;;;;;5.90;4.05;;;;;;;17.38;44.57;99844.75;5074653;28;19926;-68
2023/03/24 04:50:00;;;;;;;5.50;3.95;;;;;;;17.38;44.66;99847.44;5074344;28;20055;-68
2023/03/24 04:52:29;;;;;;;6.07;4.03;;;;;;;17.37;44.73;99851.13;5074377;28;20045;-68
2023/03/24 04:54:58;;;;;;;5.82;4.05;;;;;;;17.36;44.65;99857.50;5074323;28;20048;-69
2023/03/24 04:57:26;;;;;;;5.40;4.03;;;;;;;17.37;44.61;99850.25;5074236;28;20456;-69
2023/03/24 04:59:54;;;;;;;6.55;4.57;;;;;;;17.35;44.75;99841.47;5074128;28;20105;-69
2023/03/24 05:02:24;;;;;;;6.88;4.75;;;;;;;17.35;44.81;99850.41;5074239;28;20223;-69
2023/03/24 05:04:52;;;;;;;6.90;4.30;;;;;;;17.34;44.94;99853.25;5074028;28;20040;-68
2023/03/24 05:07:20;;;;;;;5.97;4.32;;;;;;;17.34;44.79;99856.78;5073945;28;20075;-69
2023/03/24 05:09:49;;;;;;;6.25;4.15;;;;;;;17.32;44.82;99844.47;5073517;28;20071;-68
2023/03/24 05:12:17;;;;;;;5.97;4.18;;;;;;;17.32;44.57;99850.72;5073964;28;20048;-69
2023/03/24 05:14:45;;;;;;;6.32;4.30;;;;;;;17.30;44.83;99851.84;5074037;28;20098;-69
2023/03/24 05:17:13;;;;;;;6.22;4.35;;;;;;;17.30;44.73;99857.25;5074268;28;20120;-69
2023/03/24 05:19:43;;;;;;;7.70;5.13;;;;;;;17.30;44.71;99858.09;5073801;28;20148;-69
2023/03/24 05:22:11;;;;;;;6.80;4.55;;;;;;;17.29;44.67;99858.25;5073963;28;20048;-69
2023/03/24 05:24:40;;;;;;;6.82;4.50;;;;;;;17.29;44.59;99855.56;5073743;28;20041;-69
2023/03/24 05:27:08;;;;;;;7.00;4.57;;;;;;;17.29;44.64;99864.47;5073631;28;20047;-69
2023/03/24 05:29:36;;;;;;;5.72;4.10;;;;;;;17.27;44.72;99862.91;5073675;28;20052;-69
2023/03/24 05:32:05;;;;;;;6.78;4.25;;;;;;;17.27;44.37;99857.50;5073512;28;20474;-69
2023/03/24 05:34:33;;;;;;;6.50;4.60;;;;;;;17.28;44.58;99859.25;5073610;28;20482;-69
2023/03/24 05:37:02;;;;;;;5.72;4.22;;;;;;;17.26;44.52;99866.59;5073636;28;20051;-69
2023/03/24 05:39:30;;;;;;;6.70;4.35;;;;;;;17.27;44.68;99869.16;5073280;28;20116;-68
2023/03/24 05:41:59;;;;;;;6.57;4.45;;;;;;;17.26;44.68;99866.59;5073513;28;20044;-68
2023/03/24 05:44:27;;;;;;;6.95;4.63;;;;;;;17.25;44.54;99873.84;5073440;28;20044;-69
2023/03/24 05:46:55;;;;;;;6.82;4.60;;;;;;;17.25;44.76;99864.91;5073415;28;20044;-69
2023/03/24 05:49:23;;;;;;;7.20;4.55;;;;;;;17.25;44.61;99875.69;5073135;28;20417;-69
2023/03/24 05:51:51;;;;;;;6.43;4.40;;;;;;;17.24;44.85;99879.38;5072986;28;20068;-69
2023/03/24 05:54:21;;;;;;;6.70;4.93;;;;;;;17.24;44.68;99880.22;5072766;28;20051;-68
2023/03/24 05:56:50;;;;;;;6.43;4.75;;;;;;;17.24;44.77;99880.22;5072863;28;20132;-69
2023/03/24 05:59:18;;;;;;;6.65;4.78;;;;;;;17.24;44.54;99879.38;5072964;28;20444;-68
2023/03/24 06:01:47;;;;;;;6.13;4.60;;;;;;;17.24;44.60;99884.75;5072901;28;20048;-69
2023/03/24 06:04:15;;;;;;;6.05;4.22;;;;;;;17.24;44.69;99888.31;5072945;28;20052;-69
2023/03/24 06:06:44;;;;;;;6.97;4.50;;;;;;;17.24;44.70;99876.69;5072704;28;20049;-70
2023/03/24 06:09:13;;;;;;;6.65;4.78;;;;;;;17.23;44.62;99877.69;5072470;28;20045;-69
2023/03/24 06:11:43;;;;;;;7.13;4.75;;;;;;;17.24;44.80;99882.91;5072591;28;20044;-69
2023/03/24 06:14:11;;;;;;;6.75;4.82;;;;;;;17.23;44.68;99874.97;5072667;28;20075;-68
2023/03/24 06:16:39;;;;;;;7.00;4.75;;;;;;;17.22;44.60;99882.22;5072363;28;20098;-69
2023/03/24 06:19:07;;;;;;;7.97;5.30;;;;;;;17.21;44.62;99880.53;5072505;28;20110;-69
2023/03/24 06:21:35;;;;;;;6.88;4.57;;;;;;;17.22;44.67;99879.53;5071389;28;20045;-68
2023/03/24 06:24:04;;;;;;;7.80;4.80;;;;;;;17.20;44.62;99872.59;5071962;28;20126;-68
2023/03/24 06:26:32;;;;;;;7.32;4.88;;;;;;;17.21;44.71;99875.13;5071223;28;20120;-68
2023/03/24 06:29:02;;;;;;;7.40;5.00;;;;;;;17.22;44.72;99878.69;5070638;28;20045;-69
2023/03/24 06:31:31;;;;;;;7.13;5.10;;;;;;;17.22;44.63;99884.06;5070739;28;20048;-68
2023/03/24 06:34:00;;;;;;;7.50;4.85;;;;;;;17.23;44.61;99888.47;5070987;28;20099;-69
2023/03/24 06:36:28;;;;;;;7.78;5.53;;;;;;;17.24;44.76;99884.75;5071196;28;20079;-68
2023/03/24 06:38:56;;;;;;;5.93;4.53;;;;;;;17.23;44.92;99883.91;5071406;28;20076;-68
2023/03/24 06:41:25;;;;;;;7.85;5.50;;;;;;;17.23;44.67;99877.69;5071212;28;20523;-69
2023/03/24 06:43:53;;;;;;;8.00;5.20;;;;;;;17.23;44.68;99885.75;5071294;28;20405;-69
2023/03/24 06:46:22;;;;;;;7.18;5.10;;;;;;;17.23;44.68;99885.75;5071192;28;20045;-69
2023/03/24 06:48:50;;;;;;;7.40;5.22;;;;;;;17.23;44.61;99883.06;5071504;28;20453;-68
2023/03/24 06:51:19;;;;;;;6.72;4.97;;;;;;;17.23;44.85;99874.97;5072096;28;20139;-68
2023/03/24 06:53:47;;;;;;;6.82;5.15;;;;;;;17.24;44.76;99877.53;5071658;28;20099;-68
2023/03/24 06:56:17;;;;;;;7.50;5.32;;;;;;;17.24;44.67;99880.22;5071429;28;20066;-69
2023/03/24 06:58:46;;;;;;;8.20;5.65;;;;;;;17.21;44.50;99872.44;5071545;28;20051;-68
2023/03/24 07:01:14;;;;;;;7.22;5.45;;;;;;;17.25;44.51;99876.53;5071643;28;20101;-68
2023/03/24 07:03:44;;;;;;;7.30;5.10;;;;;;;17.25;44.46;99870.28;5071709;28;20044;-69
2023/03/24 07:06:13;;;;;;;9.40;5.55;;;;;;;17.25;44.54;99865.75;5071459;28;20101;-67
2023/03/24 07:08:41;;;;;;;7.72;5.50;;;;;;;17.25;44.62;99872.97;5071541;28;20083;-69
2023/03/24 07:11:09;;;;;;;7.53;5.00;;;;;;;17.26;44.67;99866.59;5071588;28;20405;-69
2023/03/24 07:13:37;;;;;;;7.63;5.13;;;;;;;17.26;44.71;99863.91;5071590;28;20333;-68
2023/03/24 07:16:06;;;;;;;8.63;5.55;;;;;;;17.23;44.67;99859.66;5071534;28;20075;-70
2023/03/24 07:18:34;;;;;;;7.00;5.07;;;;;;;17.27;44.57;99862.91;5071660;28;20130;-70
2023/03/24 07:21:05;;;;;;;7.78;5.28;;;;;;;17.27;44.67;99861.06;5071365;28;20049;-68
2023/03/24 07:23:36;;;;;;;7.88;4.95;;;;;;;17.27;44.73;99860.22;5071700;28;20052;-69
2023/03/24 07:26:05;;;;;;;8.07;5.40;;;;;;;17.28;44.80;99853.84;5071788;28;20071;-69
2023/03/24 07:28:33;;;;;;;6.82;4.90;;;;;;;17.26;44.99;99847.72;5071648;28;20470;-68
2023/03/24 07:31:03;;;;;;;8.00;5.43;;;;;;;17.29;44.74;99856.41;5071557;28;20052;-67
2023/03/24 07:33:34;;;;;;;6.85;5.10;;;;;;;17.29;44.80;99845.63;5071613;28;20090;-66
2023/03/24 07:36:04;;;;;;;9.68;5.03;;;;;;;17.31;44.93;99853.56;5071304;28;20363;-67
2023/03/24 07:38:33;;;;;;;7.88;5.20;;;;;;;17.30;45.11;99833.84;5071326;28;20041;-68
2023/03/24 07:41:02;;;;;;;7.97;5.63;;;;;;;17.32;45.23;99828.28;5073475;28;20064;-70
2023/03/24 07:43:30;;;;;;;6.97;4.90;;;;;;;17.33;45.13;99835.38;5071593;28;20049;-67
2023/03/24 07:45:58;;;;;;;7.25;5.10;;;;;;;17.31;45.08;99835.53;5071343;28;20045;-65
2023/03/24 07:48:26;;;;;;;7.93;4.78;;;;;;;17.32;45.18;99839.06;5069579;28;20086;-66
2023/03/24 07:50:55;;;;;;;7.95;5.10;;;;;;;17.33;45.30;99844.31;5071107;28;20048;-66
2023/03/24 07:53:24;;;;;;;7.18;4.90;;;;;;;17.35;44.92;99842.31;5078004;28;20382;-67
2023/03/24 07:55:52;;;;;;;7.82;5.30;;;;;;;17.35;45.34;99834.22;5070880;28;20040;-65
2023/03/24 07:58:21;;;;;;;7.85;5.55;;;;;;;17.35;45.15;99839.63;5070716;28;20058;-65
2023/03/24 08:00:49;;;;;;;7.20;5.25;;;;;;;17.33;45.29;99830.84;5070831;28;20060;-66
2023/03/24 08:03:17;;;;;;;7.55;5.22;;;;;;;17.36;45.47;99835.09;5070926;28;20044;-66
2023/03/24 08:05:46;;;;;;;8.05;5.55;;;;;;;17.39;45.31;99834.81;5071248;28;20435;-66
2023/03/24 08:08:14;;;;;;;7.82;5.43;;;;;;;17.39;45.38;99832.13;5051033;28;20149;-65
2023/03/24 08:10:45;;;;;;;7.45;5.43;;;;;;;17.40;45.23;99825.72;5060908;28;20070;-68
2023/03/24 08:13:13;;;;;;;7.22;4.75;;;;;;;17.40;44.99;99818.47;5070904;28;20044;-67
2023/03/24 08:15:41;;;;;;;8.00;5.25;;;;;;;17.41;45.31;99817.47;5069410;28;20048;-66
2023/03/24 08:18:10;;;;;;;7.60;5.10;;;;;;;17.40;45.38;99815.78;5069342;28;20344;-66
2023/03/24 08:20:38;;;;;;;7.13;5.45;;;;;;;17.44;45.46;99816.34;5070196;28;20051;-66
2023/03/24 08:23:07;;;;;;;7.43;5.38;;;;;;;17.44;45.25;99805.56;5070608;28;20056;-67
2023/03/24 08:25:36;;;;;;;7.72;5.50;;;;;;;17.45;45.19;99801.84;5070195;28;20068;-68
2023/03/24 08:28:06;;;;;;;8.73;5.40;;;;;;;17.46;45.34;99807.09;5070910;28;20127;-67
2023/03/24 08:30:34;;;;;;;7.70;4.85;;;;;;;17.46;45.18;99804.41;5070945;28;20497;-67
2023/03/24 08:33:04;;;;;;;8.27;5.28;;;;;;;17.47;45.29;99799.88;5071038;28;20052;-67
2023/03/24 08:35:37;;;;;;;7.75;5.00;;;;;;;17.49;45.21;99794.34;5071133;28;20135;-67
2023/03/24 08:38:05;;;;;;;;;;;;;;;17.51;45.46;99797.72;5071522;28;20048;-67
2023/03/24 08:40:35;;;;;;;6.82;5.28;;;;;;;17.50;45.24;99793.34;5070854;28;19921;-67
2023/03/24 08:43:08;;;;;;;8.02;5.40;;;;;;;17.51;45.23;99790.50;5072057;28;20098;-67
2023/03/24 08:45:37;;;;;;;6.72;5.18;;;;;;;17.53;45.18;99791.19;5073710;28;20048;-67
2023/03/24 08:48:07;;;;;;;7.20;5.10;;;;;;;17.55;45.19;99791.03;5074617;28;20119;-67
2023/03/24 08:50:37;;;;;;;8.02;5.57;;;;;;;17.56;45.37;99788.19;5074521;28;20055;-66
2023/03/24 08:53:06;;;;;;;7.13;4.95;;;;;;;17.55;45.29;99781.09;5074493;28;20115;-67
2023/03/24 08:55:40;;;;;;;7.47;4.63;;;;;;;17.58;45.27;99775.44;5074542;28;20580;-67
2023/03/24 08:58:12;;;;;;;;;;;;;;;17.59;45.21;99774.44;5074865;28;20044;-67
2023/03/24 09:00:40;;;;;;;7.75;5.15;;;;;;;17.59;45.34;99782.50;5074197;28;19920;-67
2023/03/24 09:03:12;;;;;;;6.80;4.95;;;;;;;17.59;45.06;99774.44;5074279;28;20079;-68
2023/03/24 09:05:40;;;;;;;7.18;5.10;;;;;;;17.62;45.17;99778.66;5074320;28;20515;-67
2023/03/24 09:08:21;;;;;;;6.68;4.80;;;;;;;17.60;45.23;99768.03;5074186;28;20402;-66
2023/03/24 09:10:50;;;;;;;7.82;4.90;;;;;;;17.64;45.07;99774.81;5073885;28;20044;-67
2023/03/24 09:13:20;;;;;;;6.78;4.32;;;;;;;17.66;45.09;99772.84;5073858;28;20051;-66
2023/03/24 09:15:50;;;;;;;7.07;5.18;;;;;;;17.65;44.80;99771.13;5073592;28;20060;-66
2023/03/24 09:18:20;;;;;;;7.55;5.05;;;;;;;17.67;45.08;99768.28;5072756;28;20397;-66
2023/03/24 09:20:49;;;;;;;6.50;4.90;;;;;;;17.68;45.27;99767.28;5073758;28;20115;-68
2023/03/24 09:23:18;;;;;;;6.53;4.50;;;;;;;17.72;44.96;99774.94;5073766;28;20045;-66
2023/03/24 09:25:48;;;;;;;6.05;4.47;;;;;;;17.74;44.93;99769.41;5074835;28;20123;-66
2023/03/24 09:28:19;;;;;;;6.28;4.32;;;;;;;17.76;45.14;99769.25;5074340;28;20137;-67
2023/03/24 09:30:47;;;;;;;7.45;5.13;;;;;;;17.76;45.14;99755.75;5073493;28;20535;-66
2023/03/24 09:33:17;;;;;;;8.52;5.05;;;;;;;17.78;45.04;99764.56;5073530;28;20044;-67
2023/03/24 09:35:45;;;;;;;6.55;4.55;;;;;;;17.80;44.88;99762.56;5073534;28;20401;-67
2023/03/24 09:38:13;;;;;;;7.00;4.78;;;;;;;17.81;45.00;99758.88;5073446;28;20051;-68
2023/03/24 09:40:42;;;;;;;5.00;4.15;;;;;;;17.84;44.86;99759.41;5073176;28;20456;-66
2023/03/24 09:43:23;;;;;;;6.75;4.55;;;;;;;17.86;44.87;99752.03;5073291;28;20045;-67
2023/03/24 09:45:56;;;;;;;7.25;4.80;;;;;;;17.88;44.80;99749.19;5073611;28;20060;-68
2023/03/24 09:48:29;;;;;;;;;;;;;;;17.90;44.88;99748.03;5073675;28;20515;-67
2023/03/24 09:51:00;;;;;;;5.77;4.20;;;;;;;17.93;44.99;99741.47;5073277;28;19963;-67
2023/03/24 09:53:37;;;;;;;6.05;4.50;;;;;;;17.93;44.91;99731.53;5073094;28;20049;-67
2023/03/24 09:56:12;;;;;;;7.50;4.43;;;;;;;17.97;44.93;99724.84;5072404;28;20036;-67
2023/03/24 09:58:41;;;;;;;6.95;4.80;;;;;;;17.99;44.95;99719.28;5072740;28;20044;-67
2023/03/24 10:01:14;;;;;;;7.82;4.80;;;;;;;18.02;45.19;99719.81;5072929;28;20053;-67
2023/03/24 10:03:44;;;;;;;7.13;4.63;;;;;;;18.05;44.91;99710.59;5073326;28;20454;-67
2023/03/24 10:06:20;;;;;;;6.72;4.30;;;;;;;18.09;44.94;99711.13;5073028;28;20045;-68
2023/03/24 10:08:55;;;;;;;6.78;4.63;;;;;;;18.11;45.06;99711.81;5073027;28;20106;-67
2023/03/24 10:11:31;;;;;;;5.90;4.30;;;;;;;18.14;44.99;99706.94;5072736;28;20079;-67
2023/03/24 10:14:16;;;;;;;6.68;4.47;;;;;;;18.18;45.18;99702.94;5072748;28;20193;-67
2023/03/24 10:16:52;;;;;;;5.97;4.07;;;;;;;18.22;45.36;99698.94;5072805;28;20040;-67
2023/03/24 10:19:33;;;;;;;6.45;4.43;;;;;;;18.27;45.43;99698.47;5072646;28;20044;-66
2023/03/24 10:22:11;;;;;;;6.30;4.10;;;;;;;18.30;45.31;99696.31;5072345;28;20048;-67
2023/03/24 10:24:46;;;;;;;6.72;4.60;;;;;;;18.32;45.45;99685.34;5072366;28;20091;-67
2023/03/24 10:27:25;;;;;;;6.47;4.70;;;;;;;18.37;45.18;99682.19;5072377;28;20120;-67
2023/03/24 10:29:57;;;;;;;6.90;4.63;;;;;;;18.40;45.35;99689.97;5071037;28;20048;-66
2023/03/24 10:32:29;;;;;;;5.63;4.15;;;;;;;18.44;45.40;99684.13;5072235;28;20037;-67
2023/03/24 10:35:06;;;;;;;7.05;4.32;;;;;;;18.47;45.05;99675.69;5072525;28;20063;-67
2023/03/24 10:37:35;;;;;;;7.30;4.53;;;;;;;18.54;45.55;99673.22;5072123;28;20056;-67
2023/03/24 10:40:13;;;;;;;5.85;4.15;;;;;;;18.58;45.12;99666.50;5071977;28;20461;-67
2023/03/24 10:42:42;;;;;;;6.65;4.45;;;;;;;18.63;45.28;99669.59;5072221;28;20551;-67
2023/03/24 10:45:14;;;;;;;7.07;4.53;;;;;;;18.70;45.53;99664.41;5072216;28;20127;-67
2023/03/24 10:47:44;;;;;;;7.13;4.50;;;;;;;18.73;45.34;99675.78;5070375;28;20049;-68
2023/03/24 10:50:13;;;;;;;6.05;4.20;;;;;;;18.79;45.06;99680.50;5071987;28;20383;-68
2023/03/24 10:52:46;;;;;;;7.20;4.35;;;;;;;18.84;45.35;99671.94;5072251;28;20048;-68
2023/03/24 10:55:17;;;;;;;8.05;4.72;;;;;;;18.90;45.31;99670.44;5072263;28;20059;-68
2023/03/24 10:57:49;;;;;;;5.70;3.95;;;;;;;18.93;44.93;99664.75;5072044;28;20044;-67
2023/03/24 11:00:25;;;;;;;5.93;3.95;;;;;;;19.01;45.06;99667.47;5071793;28;20053;-67
2023/03/24 11:02:57;;;;;;;6.55;3.83;;;;;;;19.06;45.25;99662.44;5071484;28;20055;-67
2023/03/24 11:05:30;;;;;;;6.47;4.30;;;;;;;19.10;44.79;99655.69;5071914;28;20055;-67
2023/03/24 11:08:12;;;;;;;7.35;4.03;;;;;;;19.18;45.09;99661.16;5071156;28;20044;-67
2023/03/24 11:10:40;;;;;;;6.50;3.88;;;;;;;19.23;44.69;99664.22;5071605;28;20044;-67
2023/03/24 11:13:17;;;;;;;6.70;3.72;;;;;;;19.28;44.90;99653.75;5071676;28;20525;-68
2023/03/24 11:16:05;;;;;;;6.70;4.07;;;;;;;19.34;44.50;99647.72;5071757;28;20060;-68
2023/03/24 11:18:35;;;;;;;6.05;3.80;;;;;;;19.40;44.44;99625.44;5071662;28;20044;-67
2023/03/24 11:21:05;;;;;;;8.55;4.07;;;;;;;19.43;44.53;99629.66;5071526;28;20409;-67
2023/03/24 11:23:37;;;;;;;6.75;3.90;;;;;;;19.49;44.54;99617.31;5072576;28;20048;-67
2023/03/24 11:26:09;;;;;;;6.95;4.15;;;;;;;19.56;44.54;99629.22;5074670;28;20064;-68
2023/03/24 11:28:41;;;;;;;6.80;3.70;;;;;;;19.61;44.57;99624.16;5073161;28;20051;-68
2023/03/24 11:31:17;;;;;;;6.00;3.60;;;;;;;19.67;44.47;99620.78;5073186;28;20045;-67
2023/03/24 11:33:55;;;;;;;5.85;3.50;;;;;;;19.72;44.54;99618.44;5071542;28;20044;-67
2023/03/24 11:36:52;;;;;;;6.80;3.85;;;;;;;19.77;44.12;99610.66;5071312;28;20471;-68
2023/03/24 11:39:23;;;;;;;6.68;3.83;;;;;;;19.81;44.54;99612.03;5036376;28;20045;-68
2023/03/24 11:42:03;;;;;;;6.07;3.45;;;;;;;19.86;44.42;99598.81;5071509;28;20045;-68
2023/03/24 11:44:43;;;;;;;8.25;3.65;;;;;;;19.89;44.22;99601.22;5071296;28;20143;-68
2023/03/24 11:47:16;;;;;;;6.68;3.55;;;;;;;19.97;43.92;99584.97;5071577;28;20060;-68
2023/03/24 11:49:50;;;;;;;6.07;3.65;;;;;;;20.02;43.74;99588.03;5071131;28;20123;-67
2023/03/24 11:52:23;;;;;;;6.57;3.50;;;;;;;20.08;43.92;99591.09;5071157;28;20063;-69
2023/03/24 11:54:51;;;;;;;;;;;;;;;20.10;43.52;99579.06;5071595;28;20458;-67
2023/03/24 11:57:37;;;;;;;5.97;3.00;;;;;;;20.14;43.74;99574.97;5071205;28;19920;-68